Elementary School XC Ski Race #1

Tuesday, February 2, 2016 11:02 AM (GMT-5) - Final results

Race info
Sport: Skiing - cross-country
Location: Huntsville, ON, Canada
Start type: Interval start
Racers: 68
Timed on: iPad
Timed with: Webscorer PRO 2.2
Updated: Tuesday, February 2, 2016 2:36 PM (GMT-5)

Contact organizer

Use this form to send an email to the organizer.

Your name
Your email address
Confirm email address
Message to organizer
Send

Place Bib Racer name Affiliation Category Gender Finish time
1523Carolyn YungblutSpruce Glen Grade 3/4 GirlsF 11:39.6--100%42.31%35.84%
2495Alexandra SzczerbakMacaulay Grade 3/4 GirlsF 12:09.8+0:30.2+4.32%95.86%39.82%33.07%
3481Emilja LanglaisHPS Grade 3/4 GirlsF 12:13.8+0:34.2+4.89%95.34%39.49%32.70%
4531Leah RichterVK Greer Grade 3/4 GirlsF 12:25.8+0:46.2+6.60%93.81%38.50%31.60%
5508Tess FergusonRiverside Grade 3/4 GirlsF 12:47.3+1:07.7+9.68%91.18%36.73%29.63%
6496Grace ThomasMonck Grade 3/4 GirlsF 13:49.8+2:10.2+18.61%84.31%31.57%23.90%
7513Keira MarshallRiverside Grade 3/4 GirlsF 14:04.4+2:24.8+20.70%82.85%30.37%22.56%
8519Alayna HeinzSaint Mary Grade 3/4 GirlsF 14:09.5+2:29.9+21.43%82.35%29.95%22.09%
9498Ella MangaroffPine Glen Grade 3/4 GirlsF 14:24.1+2:44.5+23.51%80.96%28.74%20.75%
10512Megan GallRiverside Grade 3/4 GirlsF 14:27.1+2:47.5+23.94%80.68%28.50%20.48%
11516Sofia AsturiSaint Mary Grade 3/4 GirlsF 14:30.4+2:50.8+24.41%80.38%28.22%20.18%
12503Kelseigh PettersonRiverside Grade 3/4 GirlsF 14:38.8+2:59.2+25.61%79.61%27.53%19.41%
13501Parker BullenRiverside Grade 3/4 GirlsF 14:43.9+3:04.3+26.34%79.15%27.11%18.94%
14482Mackenzie HowardHPS Grade 3/4 GirlsF 14:50.9+3:11.3+27.34%78.53%26.53%18.30%
15517Sophia WebsterSaint Mary Grade 3/4 GirlsF 15:05.2+3:25.6+29.39%77.29%25.35%16.98%
16528Cate GottliebTawingo Grade 3/4 GirlsF 15:16.9+3:37.3+31.06%76.30%24.39%15.91%
17502Margot FlemingRiverside Grade 3/4 GirlsF 15:17.1+3:37.5+31.09%76.28%24.37%15.89%
18488Arwen OliverIrwin Grade 3/4 GirlsF 15:28.6+3:49.0+32.73%75.34%23.42%14.84%
19521Hannah ScottSpruce Glen Grade 3/4 GirlsF 15:37.0+3:57.4+33.93%74.66%22.73%14.07%
20484Kara McclungHPS Grade 3/4 GirlsF 15:41.7+4:02.1+34.61%74.29%22.34%13.64%
21529Grace BaxterTawingo Grade 3/4 GirlsF 15:51.2+4:11.6+35.96%73.55%21.56%12.77%
22483Maeve YoungHPS Grade 3/4 GirlsF 16:10.8+4:31.2+38.77%72.06%19.94%10.97%
23526Gigi DalesSpruce Glen Grade 3/4 GirlsF 16:25.0+4:45.4+40.79%71.03%18.77%9.67%
24520Keleigh HiggsSpruce Glen Grade 3/4 GirlsF 16:31.1+4:51.5+41.67%70.59%18.27%9.11%
25536Gracie EberleWatt Grade 3/4 GirlsF 16:35.5+4:55.9+42.30%70.28%17.91%8.70%
26497Makena BijlMontessori Grade 3/4 GirlsF 16:35.6+4:56.0+42.31%70.27%17.90%8.69%
27510Mya WilkinRiverside Grade 3/4 GirlsF 16:39.4+4:59.8+42.85%70.00%17.59%8.35%
28494Audrey MooreMacaulay Grade 3/4 GirlsF 16:41.3+5:01.7+43.12%69.87%17.43%8.17%
29511Brianna SinnigeRiverside Grade 3/4 GirlsF 16:43.6+5:04.0+43.45%69.71%17.24%7.96%
30522Tiya PatelSpruce Glen Grade 3/4 GirlsF 17:00.0+5:20.4+45.80%68.59%15.89%6.46%
31509Avalon Martin-MctavishRiverside Grade 3/4 GirlsF 17:15.7+5:36.1+48.04%67.55%14.59%5.02%
32486Josie BarterIrwin Grade 3/4 GirlsF 17:19.4+5:39.8+48.57%67.31%14.29%4.68%
33534Jade PostmaWatt Grade 3/4 GirlsF 17:56.7+6:17.1+53.90%64.98%11.21%1.26%
34480Justine McnaughtonHPS Grade 3/4 GirlsF 18:00.4+6:20.8+54.43%64.75%10.91%0.92%
35507Anna PattersonRiverside Grade 3/4 GirlsF 18:20.4+6:40.8+57.29%63.58%9.26%-0.92%
36505Hayley OkeRiverside Grade 3/4 GirlsF 18:29.9+6:50.3+58.65%63.03%8.47%-1.79%
37487Natalie TrebilcockIrwin Grade 3/4 GirlsF 18:42.7+7:03.1+60.48%62.31%7.42%-2.96%
38515Tayiah CooperSaint Mary Grade 3/4 GirlsF 18:51.3+7:11.7+61.71%61.84%6.71%-3.75%
39499Haylee McgaryPine Glen Grade 3/4 GirlsF 19:05.2+7:25.6+63.69%61.09%5.56%-5.03%
40490Olivia MelhuishMacaulay Grade 3/4 GirlsF 19:27.6+7:48.0+66.90%59.92%3.72%-7.08%
41506Addyson WingRiverside Grade 3/4 GirlsF 19:39.5+7:59.9+68.60%59.31%2.73%-8.17%
42468Nyah ZimmerBPS Grade 3/4 GirlsF 20:06.3+8:26.7+72.43%58.00%0.52%-10.63%
43500Jaylen BullPine Glen Grade 3/4 GirlsF 20:07.1+8:27.5+72.54%57.96%0.46%-10.70%
44514Morgan SutherlandRiverside Grade 3/4 GirlsF 20:07.5+8:27.9+72.60%57.94%0.43%-10.74%
45538Jocelyn ReadmanWatt Grade 3/4 GirlsF 20:22.7+8:43.1+74.77%57.22%-0.83%-12.13%
46525Dearanna Robinson-CookeSpruce Glen Grade 3/4 GirlsF 20:46.3+9:06.7+78.14%56.13%-2.77%-14.30%
47472Mya CalicBPS Grade 3/4 GirlsF 20:56.0+9:16.4+79.53%55.70%-3.57%-15.19%
48473Jade WalkerBPS Grade 3/4 GirlsF 21:10.8+9:31.2+81.65%55.05%-4.79%-16.54%
49530Brooke Denny-ZboyovskyTawingo Grade 3/4 GirlsF 22:14.3+10:34.7+90.72%52.43%-10.03%-22.37%
50489Ava RogersMacaulay Grade 3/4 GirlsF 22:17.2+10:37.6+91.14%52.32%-10.27%-22.63%
51478Jayme HewickBPS Grade 3/4 GirlsF 22:34.1+10:54.5+93.55%51.67%-11.66%-24.18%
52532Nicole CouttsWatt Grade 3/4 GirlsF 23:16.5+11:36.9+99.61%50.10%-15.16%-28.07%
53518Ruby MawSaint Mary Grade 3/4 GirlsF 23:35.7+11:56.1+102.36%49.42%-16.74%-29.83%
54492Serenity BarracloughMacaulay Grade 3/4 GirlsF 23:58.1+12:18.5+105.56%48.65%-18.59%-31.89%
55470Tara MurrayBPS Grade 3/4 GirlsF 24:20.6+12:41.0+108.78%47.90%-20.45%-33.95%
56535Katrina ChurchWatt Grade 3/4 GirlsF 24:25.9+12:46.3+109.53%47.72%-20.88%-34.44%
57537Keira BrazierWatt Grade 3/4 GirlsF 27:01.2+15:21.6+131.73%43.15%-33.69%-48.68%
58491Evelyn BorlandMacaulay Grade 3/4 GirlsF 28:15.3+16:35.7+142.32%41.27%-39.80%-55.48%
59479Brooklyn BygottBPS Grade 3/4 GirlsF 28:38.6+16:59.0+145.65%40.71%-41.72%-57.61%
60524Cadence GodinSpruce Glen Grade 3/4 GirlsF 29:34.3+17:54.7+153.62%39.43%-46.31%-62.72%
61527Hannah LoringSpruce Glen Grade 3/4 GirlsF 29:38.3+17:58.7+154.19%39.34%-46.64%-63.09%
62474Katie Lee BruntonBPS Grade 3/4 GirlsF 30:17.4+18:37.8+159.78%38.49%-49.87%-66.67%
63533Sonya LambWatt Grade 3/4 GirlsF 30:57.1+19:17.5+165.45%37.67%-53.14%-70.31%
64477Kaitlyn DunlopBPS Grade 3/4 GirlsF 33:03.3+21:23.7+183.49%35.27%-63.55%-81.89%
65476Natalie BukerBPS Grade 3/4 GirlsF 37:43.9+26:04.3+223.60%30.90%-86.69%-107.62%
66475Kendra ReidBPS Grade 3/4 GirlsF 37:50.2+26:10.6+224.50%30.82%-87.21%-108.20%
67471Julianna KaulbackBPS Grade 3/4 GirlsF 38:31.6+26:52.0+230.42%30.26%-90.62%-112.00%
68469Felicity ClementBPS Grade 3/4 GirlsF 40:46.9+29:07.3+249.76%28.59%-101.78%-124.40%